createdAt,value
2023-02-11T00:01:48.673Z,72.38
2023-02-11T00:04:16.842Z,72.30
2023-02-11T00:06:44.704Z,81.22
2023-02-11T00:09:11.945Z,70.47
2023-02-11T00:11:39.365Z,61.53
2023-02-11T00:14:08.680Z,65.82
2023-02-11T00:16:36.740Z,71.28
2023-02-11T00:19:06.312Z,66.90
2023-02-11T00:21:34.603Z,65.53
2023-02-11T00:24:02.416Z,65.63
2023-02-11T00:26:32.702Z,69.00
2023-02-11T00:29:02.086Z,63.50
2023-02-11T00:31:32.163Z,59.45
2023-02-11T00:33:59.511Z,57.67
2023-02-11T00:36:28.352Z,65.70
2023-02-11T00:38:56.927Z,57.25
2023-02-11T00:41:24.869Z,60.45
2023-02-11T00:43:52.605Z,62.88
2023-02-11T00:46:20.222Z,66.45
2023-02-11T00:48:47.946Z,71.78
2023-02-11T00:51:16.274Z,59.92
2023-02-11T00:53:43.613Z,61.17
2023-02-11T00:56:11.392Z,67.00
2023-02-11T00:58:38.728Z,70.22
2023-02-11T01:01:06.411Z,73.97
2023-02-11T01:03:34.601Z,72.15
2023-02-11T01:06:02.048Z,70.28
2023-02-11T01:08:30.070Z,61.88
2023-02-11T01:11:11.928Z,72.53
2023-02-11T01:13:39.738Z,70.68
2023-02-11T01:16:09.873Z,66.70
2023-02-11T01:18:38.486Z,72.55
2023-02-11T01:21:06.289Z,69.32
2023-02-11T01:23:33.598Z,73.10
2023-02-11T01:26:00.915Z,76.18
2023-02-11T01:28:31.037Z,66.07
2023-02-11T01:31:02.462Z,70.35
2023-02-11T01:33:30.769Z,70.88
2023-02-11T01:36:04.195Z,73.63
2023-02-11T01:38:32.616Z,70.78
2023-02-11T01:41:06.010Z,71.07
2023-02-11T01:43:40.421Z,70.50
2023-02-11T01:46:34.958Z,73.28
2023-02-11T01:49:16.470Z,76.75
2023-02-11T01:51:49.862Z,70.07
2023-02-11T01:54:39.829Z,73.20
2023-02-11T01:57:25.087Z,70.20
2023-02-11T02:00:11.068Z,72.97
2023-02-11T02:02:58.875Z,65.90
2023-02-11T02:05:38.271Z,74.30
2023-02-11T02:08:15.363Z,66.60
2023-02-11T02:10:48.250Z,68.28
2023-02-11T02:13:17.456Z,69.75
2023-02-11T02:15:52.023Z,67.00
2023-02-11T02:18:56.021Z,69.07
2023-02-11T02:21:37.835Z,73.57
2023-02-11T02:24:13.190Z,70.28
2023-02-11T05:13:14.866Z,52.63
2023-02-11T05:15:42.620Z,54.65
2023-02-11T05:18:10.709Z,49.45
2023-02-11T05:20:39.184Z,50.13
2023-02-11T05:23:06.418Z,55.25
2023-02-11T05:25:35.467Z,48.53
2023-02-11T05:28:03.379Z,56.53
2023-02-11T05:30:30.855Z,59.00
2023-02-11T05:32:58.294Z,51.13
2023-02-11T05:35:26.106Z,54.28
2023-02-11T05:37:53.499Z,49.80
2023-02-11T05:40:20.939Z,54.78
2023-02-11T05:42:48.188Z,46.97
2023-02-11T05:45:15.571Z,49.72
2023-02-11T05:47:43.535Z,53.13
2023-02-11T05:50:11.631Z,50.33
2023-02-11T05:52:40.000Z,53.95
2023-02-11T05:55:07.913Z,55.47
2023-02-11T05:57:35.209Z,53.95
2023-02-11T06:00:03.100Z,52.67
2023-02-11T06:02:40.368Z,51.13
2023-02-11T06:05:08.226Z,56.40
2023-02-11T06:07:35.551Z,52.90
2023-02-11T06:10:03.390Z,57.17
2023-02-11T06:12:30.716Z,54.60
2023-02-11T06:14:58.465Z,58.70
2023-02-11T06:17:25.807Z,53.10
2023-02-11T06:19:53.093Z,61.53
2023-02-11T06:22:20.484Z,55.75
2023-02-11T06:25:00.761Z,54.42
2023-02-11T06:27:29.731Z,60.60
2023-02-11T06:29:57.087Z,57.42
2023-02-11T06:32:42.959Z,57.00
2023-02-11T06:35:12.360Z,53.70
2023-02-11T06:37:41.421Z,57.25
2023-02-11T06:40:10.320Z,56.28
2023-02-11T06:42:39.142Z,54.08
2023-02-11T06:45:10.778Z,57.45
2023-02-11T06:47:38.358Z,61.50
2023-02-11T06:50:08.477Z,56.05
2023-02-11T06:52:36.304Z,54.22
2023-02-11T06:55:03.808Z,58.55
2023-02-11T06:57:31.628Z,57.38
2023-02-11T06:59:58.930Z,82.32
2023-02-11T07:02:26.293Z,76.25
2023-02-11T07:04:53.782Z,75.68
2023-02-11T07:07:21.554Z,70.25
2023-02-11T07:09:50.126Z,70.32
2023-02-11T07:12:17.484Z,73.80
2023-02-11T07:14:44.733Z,71.05
2023-02-11T07:17:12.030Z,71.35
2023-02-11T07:19:39.489Z,69.43
2023-02-11T07:22:07.010Z,64.13
2023-02-11T07:24:34.322Z,65.55
2023-02-11T07:27:01.643Z,62.92
2023-02-11T07:29:29.345Z,71.28
2023-02-11T07:31:57.245Z,67.20
2023-02-11T07:34:24.877Z,58.55
2023-02-11T07:36:52.526Z,59.67
2023-02-11T07:39:21.863Z,53.28
2023-02-11T07:41:49.585Z,58.03
2023-02-11T07:44:18.652Z,56.38
2023-02-11T07:46:47.815Z,60.47
2023-02-11T07:49:15.812Z,65.90
2023-02-11T07:51:43.213Z,51.17
2023-02-11T07:54:12.405Z,53.30
2023-02-11T07:56:40.221Z,55.67
2023-02-11T07:59:07.925Z,59.05
2023-02-11T08:01:35.220Z,55.65
2023-02-11T08:04:03.359Z,58.17
2023-02-11T08:06:33.184Z,57.85
2023-02-11T08:09:06.238Z,60.53
2023-02-11T08:11:34.202Z,59.92
2023-02-11T08:14:02.435Z,58.40
2023-02-11T08:16:32.766Z,58.03
2023-02-11T08:19:03.152Z,62.25
2023-02-11T08:21:31.088Z,59.97
2023-02-11T08:23:58.425Z,61.40
2023-02-11T08:26:28.671Z,59.97
2023-02-11T08:28:58.039Z,66.65
2023-02-11T08:31:28.558Z,66.93
2023-02-11T08:33:59.861Z,65.85
2023-02-11T08:36:29.671Z,66.38
2023-02-11T08:39:16.151Z,64.03
2023-02-11T08:41:46.311Z,67.35
2023-02-11T08:44:14.237Z,70.15
2023-02-11T08:46:41.541Z,76.15
2023-02-11T08:49:09.072Z,66.13
2023-02-11T08:51:36.416Z,63.05
2023-02-11T08:54:04.334Z,67.55
2023-02-11T08:56:33.227Z,68.85
2023-02-11T08:59:01.543Z,54.88
2023-02-11T09:01:30.589Z,66.00
2023-02-11T09:03:59.062Z,73.50
2023-02-11T09:06:27.915Z,61.08
2023-02-11T09:08:57.112Z,79.18
2023-02-11T09:11:32.446Z,53.05
2023-02-11T09:14:00.434Z,76.70
2023-02-11T09:16:30.543Z,58.97
2023-02-11T09:19:00.008Z,55.20
2023-02-11T09:21:28.131Z,56.80
2023-02-11T09:23:56.154Z,59.17
2023-02-11T09:26:29.157Z,51.63
2023-02-11T09:28:57.091Z,54.55
2023-02-11T09:31:26.858Z,51.40
2023-02-11T09:33:57.529Z,48.45
2023-02-11T09:36:28.776Z,55.60
2023-02-11T09:38:58.897Z,52.75
2023-02-11T09:41:37.804Z,49.90
2023-02-11T09:44:08.904Z,48.35
2023-02-11T09:46:42.217Z,60.13
2023-02-11T09:49:20.075Z,53.47
2023-02-11T09:51:59.311Z,61.78
2023-02-11T09:54:54.801Z,50.45
2023-02-11T09:57:28.525Z,60.50
2023-02-11T09:59:57.650Z,49.88
2023-02-11T10:02:45.378Z,52.33
2023-02-11T10:05:30.398Z,52.72
2023-02-11T10:08:17.123Z,48.80
2023-02-11T10:10:52.826Z,55.05
2023-02-11T10:13:49.619Z,50.45
2023-02-11T10:16:37.398Z,52.95
2023-02-11T10:19:19.442Z,50.30
2023-02-11T10:24:21.184Z,51.85
2023-02-11T10:26:49.641Z,43.95
2023-02-11T10:29:37.148Z,71.65
2023-02-11T10:32:16.315Z,52.65
2023-02-11T10:34:43.726Z,48.00
2023-02-11T10:37:14.807Z,52.15
2023-02-11T10:39:42.484Z,43.93
2023-02-11T10:42:13.058Z,40.67
2023-02-11T10:44:59.252Z,49.58
2023-02-11T10:47:33.379Z,48.65
2023-02-11T10:50:03.708Z,42.67
2023-02-11T10:52:31.841Z,42.97
2023-02-11T10:54:59.134Z,45.88
2023-02-11T10:57:35.326Z,46.75
2023-02-11T11:00:17.892Z,48.30
2023-02-11T11:02:52.256Z,45.75
2023-02-11T11:05:24.046Z,44.20
2023-02-11T11:10:44.676Z,48.88
2023-02-11T11:13:28.002Z,54.58
2023-02-11T11:16:07.491Z,48.30
2023-02-11T11:18:34.931Z,48.80
2023-02-11T11:21:16.469Z,44.30
2023-02-11T11:23:50.494Z,48.72
2023-02-11T11:26:19.201Z,49.13
2023-02-11T11:28:49.200Z,47.30
2023-02-11T11:31:21.661Z,41.75
2023-02-11T11:33:52.386Z,46.72
2023-02-11T11:36:32.263Z,38.65
2023-02-11T11:39:04.418Z,44.22
2023-02-11T11:41:34.630Z,42.22
2023-02-11T11:44:01.950Z,41.45
2023-02-11T11:46:33.999Z,47.53
2023-02-11T11:49:14.156Z,41.90
2023-02-11T11:51:48.506Z,42.88
2023-02-11T11:54:20.067Z,42.00
2023-02-11T11:59:22.907Z,43.05
2023-02-11T12:02:20.474Z,42.92
2023-02-11T12:04:59.584Z,39.83
2023-02-11T12:07:57.051Z,46.53
2023-02-11T12:10:39.610Z,55.42
2023-02-11T12:13:19.105Z,58.92
2023-02-11T12:16:02.281Z,55.42
2023-02-11T12:18:50.643Z,49.72
2023-02-11T12:21:23.108Z,41.15
2023-02-11T12:24:30.504Z,42.08
2023-02-11T12:27:42.832Z,41.28
2023-02-11T12:30:24.369Z,42.35
2023-02-11T12:32:59.763Z,43.92
2023-02-11T12:35:46.821Z,43.17
2023-02-11T12:38:33.436Z,39.40
2023-02-11T12:41:52.394Z,41.03
2023-02-11T12:45:05.775Z,40.97
2023-02-11T12:48:11.345Z,50.85
2023-02-11T12:50:39.225Z,42.75
2023-02-11T12:53:30.035Z,45.17
2023-02-11T12:56:23.826Z,56.55
2023-02-11T12:58:54.189Z,57.95
2023-02-11T13:01:27.787Z,50.63
2023-02-11T13:04:06.515Z,48.50
2023-02-11T13:06:39.980Z,45.70
2023-02-11T13:09:19.650Z,45.83
2023-02-11T13:11:59.123Z,43.35
2023-02-11T13:14:35.313Z,56.50
2023-02-11T13:17:16.179Z,42.75
2023-02-11T13:19:59.492Z,46.75
2023-02-11T13:22:34.589Z,60.38
2023-02-11T13:25:20.678Z,44.92
2023-02-11T13:28:19.246Z,46.78
2023-02-11T13:30:52.105Z,49.70
2023-02-11T13:33:35.033Z,48.90
2023-02-11T13:36:04.576Z,48.67
2023-02-11T13:38:33.936Z,47.60
2023-02-11T13:41:05.500Z,48.83
2023-02-11T13:43:36.705Z,49.10
2023-02-11T13:46:07.294Z,45.63
2023-02-11T13:48:52.596Z,55.05
2023-02-11T13:51:42.827Z,50.45
2023-02-11T13:54:26.161Z,53.60
2023-02-11T13:57:15.746Z,52.30
2023-02-11T13:59:44.526Z,54.83
2023-02-11T14:02:43.279Z,51.90
2023-02-11T14:05:59.003Z,47.03
2023-02-11T14:08:44.472Z,44.47
2023-02-11T14:11:24.216Z,53.45
2023-02-11T14:13:51.503Z,56.78
2023-02-11T14:16:36.493Z,46.63
2023-02-11T14:19:06.004Z,55.35
2023-02-11T14:21:37.348Z,46.50
2023-02-11T14:24:05.218Z,48.40
2023-02-11T14:26:52.224Z,43.38
2023-02-11T14:29:46.148Z,44.75
2023-02-11T14:32:25.435Z,43.72
2023-02-11T14:35:11.654Z,52.38
2023-02-11T14:38:06.974Z,49.30
2023-02-11T14:40:58.982Z,40.05
2023-02-11T14:43:31.598Z,47.03
2023-02-11T14:46:02.379Z,42.47
2023-02-11T14:48:34.996Z,47.42
2023-02-11T14:51:34.818Z,44.67
2023-02-11T14:54:15.226Z,48.30
2023-02-11T14:56:44.702Z,47.20
2023-02-11T14:59:21.929Z,40.78
2023-02-11T15:01:52.326Z,45.42
2023-02-11T15:04:28.858Z,48.83
2023-02-11T15:06:59.935Z,45.58
2023-02-11T15:09:54.205Z,42.87
2023-02-11T15:12:25.359Z,46.22
2023-02-11T15:14:59.184Z,47.72
2023-02-11T15:17:31.762Z,44.65
2023-02-11T15:20:02.223Z,47.05
2023-02-11T15:22:33.216Z,44.17
2023-02-11T15:25:22.851Z,43.90
2023-02-11T15:27:53.198Z,42.35
2023-02-11T15:30:23.738Z,49.83
2023-02-11T15:32:53.677Z,45.65
2023-02-11T15:35:21.019Z,50.25
2023-02-11T15:37:50.620Z,42.25
2023-02-11T15:40:23.031Z,50.17
2023-02-11T15:43:20.145Z,45.60
2023-02-11T15:46:01.590Z,44.08
2023-02-11T15:48:37.173Z,47.78
2023-02-11T15:51:36.281Z,41.50
2023-02-11T15:54:08.306Z,49.35
2023-02-11T15:56:43.426Z,48.72
2023-02-11T15:59:15.639Z,47.85
2023-02-11T16:01:45.402Z,47.17
2023-02-11T16:04:23.254Z,44.05
2023-02-11T16:06:51.988Z,47.80
2023-02-11T16:09:19.239Z,60.20
2023-02-11T16:11:47.173Z,75.30
2023-02-11T16:14:30.202Z,126.07
2023-02-11T16:17:05.895Z,159.90
2023-02-11T16:19:35.336Z,64.10
2023-02-11T16:22:09.264Z,92.20
2023-02-11T16:24:39.512Z,74.85
2023-02-11T16:27:18.560Z,70.50
2023-02-11T16:29:48.174Z,82.65
2023-02-11T16:32:15.846Z,106.95
2023-02-11T16:34:43.437Z,62.97
2023-02-11T16:37:11.206Z,61.58
2023-02-11T16:39:38.713Z,71.35
2023-02-11T16:42:09.190Z,73.30
2023-02-11T16:44:36.618Z,77.90
2023-02-11T16:47:07.340Z,67.78
2023-02-11T16:49:38.356Z,86.38
2023-02-11T16:52:08.711Z,74.53
2023-02-11T16:54:36.087Z,70.95
2023-02-11T16:57:13.689Z,68.47
2023-02-11T16:59:42.189Z,63.63
2023-02-11T17:02:23.621Z,58.25
2023-02-11T17:04:54.168Z,65.82
2023-02-11T17:07:22.311Z,67.28
2023-02-11T17:09:51.707Z,72.88
2023-02-11T17:12:19.897Z,64.32
2023-02-11T17:14:47.683Z,69.97
2023-02-11T17:17:15.990Z,72.90
2023-02-11T17:19:44.042Z,83.18
2023-02-11T17:22:12.062Z,80.47
2023-02-11T17:24:39.381Z,78.07
2023-02-11T17:27:07.509Z,81.05
2023-02-11T17:29:34.852Z,85.75
2023-02-11T17:32:02.674Z,87.68
2023-02-11T17:34:30.007Z,84.97
2023-02-11T17:36:58.707Z,78.03
2023-02-11T17:39:26.873Z,78.38
2023-02-11T17:41:54.243Z,77.25
2023-02-11T17:44:21.505Z,87.03
2023-02-11T17:46:48.922Z,77.25
2023-02-11T17:49:16.488Z,70.32
2023-02-11T17:51:44.212Z,69.88
2023-02-11T17:54:15.167Z,79.07
2023-02-11T17:56:43.122Z,84.80
2023-02-11T17:59:12.281Z,75.70
2023-02-11T18:01:42.461Z,70.28
2023-02-11T18:04:14.924Z,77.88
2023-02-11T18:06:42.892Z,76.38
2023-02-11T18:09:10.764Z,80.85
2023-02-11T18:11:40.052Z,78.82
2023-02-11T18:14:09.047Z,83.30
2023-02-11T18:16:39.090Z,83.50
2023-02-11T18:19:07.657Z,76.93
2023-02-11T18:21:35.935Z,72.97
2023-02-11T18:24:06.682Z,78.35
2023-02-11T18:26:35.056Z,74.65
2023-02-11T18:29:04.231Z,81.85
2023-02-11T18:31:32.211Z,87.15
2023-02-11T18:33:59.550Z,89.82
2023-02-11T18:36:27.033Z,100.97
2023-02-11T18:38:54.569Z,104.32
2023-02-11T18:41:22.017Z,105.13
2023-02-11T18:43:49.309Z,98.60
2023-02-11T18:46:17.432Z,91.05
2023-02-11T18:48:45.423Z,91.38
2023-02-11T18:51:16.108Z,85.30
2023-02-11T18:53:43.478Z,77.75
2023-02-11T18:56:14.249Z,93.18
2023-02-11T18:58:42.073Z,91.38
2023-02-11T19:01:17.186Z,94.78
2023-02-11T19:03:45.643Z,81.38
2023-02-11T19:06:25.561Z,85.25
2023-02-11T19:08:59.831Z,86.80
2023-02-11T19:11:49.914Z,93.10
2023-02-11T19:14:21.749Z,93.45
2023-02-11T19:16:51.200Z,87.75
2023-02-11T19:19:19.594Z,88.50
2023-02-11T19:21:47.671Z,87.72
2023-02-11T19:24:19.754Z,90.63
2023-02-11T19:26:49.223Z,92.90
2023-02-11T19:29:18.000Z,96.95
2023-02-11T19:31:45.888Z,77.30
2023-02-11T19:34:15.573Z,80.05
2023-02-11T19:36:43.187Z,84.10
2023-02-11T19:39:11.123Z,80.63
2023-02-11T19:41:39.574Z,81.43
2023-02-11T19:44:07.899Z,85.13
2023-02-11T19:46:38.489Z,84.38
2023-02-11T19:49:05.863Z,91.03
2023-02-11T19:51:35.633Z,88.15
2023-02-11T19:54:03.130Z,86.80
2023-02-11T19:56:30.448Z,87.00
2023-02-11T19:58:57.868Z,91.03
2023-02-11T20:01:25.954Z,89.75
2023-02-11T20:03:55.087Z,83.15
2023-02-11T20:06:26.159Z,80.40
2023-02-11T20:08:59.062Z,81.38
2023-02-11T20:11:28.614Z,86.40
2023-02-11T20:13:57.794Z,85.75
2023-02-11T20:16:40.998Z,88.07
2023-02-11T20:19:18.466Z,75.57
2023-02-11T20:24:16.412Z,87.05
2023-02-11T20:26:45.191Z,83.53
2023-02-11T20:29:12.910Z,74.40
2023-02-11T20:31:40.251Z,67.45
2023-02-11T20:34:07.605Z,72.00
2023-02-11T20:36:37.484Z,73.82
2023-02-11T20:39:06.990Z,76.40
2023-02-11T20:41:36.709Z,79.40
2023-02-11T20:44:07.565Z,80.60
2023-02-11T20:46:38.355Z,75.82
2023-02-11T20:49:08.556Z,83.65
2023-02-11T20:51:37.484Z,75.43
2023-02-11T20:54:06.428Z,66.45
2023-02-11T20:56:36.654Z,80.55
2023-02-11T20:59:05.237Z,71.10
2023-02-11T21:01:35.736Z,75.15
2023-02-11T21:04:14.073Z,75.68
2023-02-11T21:06:52.037Z,87.20
2023-02-11T21:09:23.498Z,74.07
2023-02-11T21:11:52.693Z,78.40
2023-02-11T21:14:22.288Z,73.43
2023-02-11T21:16:50.658Z,66.32
2023-02-11T21:19:18.490Z,69.25
2023-02-11T21:21:46.327Z,68.20
2023-02-11T21:24:14.255Z,62.63
2023-02-11T21:26:41.567Z,64.78
2023-02-11T21:29:10.068Z,72.82
2023-02-11T21:31:38.200Z,64.35
2023-02-11T21:34:06.807Z,72.85
2023-02-11T21:36:34.190Z,67.95
2023-02-11T21:39:03.685Z,70.18
2023-02-11T21:41:32.155Z,62.30
2023-02-11T21:43:59.381Z,66.35
2023-02-11T21:46:27.736Z,60.33
2023-02-11T21:48:56.674Z,64.85
2023-02-11T21:51:25.969Z,65.03
2023-02-11T21:53:59.556Z,62.13
2023-02-11T21:56:28.193Z,76.78
2023-02-11T21:58:58.463Z,62.75
2023-02-11T22:01:29.144Z,76.65
2023-02-11T22:03:57.054Z,64.07
2023-02-11T22:06:27.388Z,70.25
2023-02-11T22:08:55.493Z,68.80
2023-02-11T22:11:23.474Z,66.95
2023-02-11T22:13:56.304Z,62.22
2023-02-11T22:16:24.858Z,68.47
2023-02-11T22:18:52.827Z,59.42
2023-02-11T22:21:22.850Z,70.53
2023-02-11T22:23:51.923Z,76.70
2023-02-11T22:26:22.189Z,72.95
2023-02-11T22:28:51.039Z,76.70
2023-02-11T22:31:21.601Z,68.82
2023-02-11T22:33:49.005Z,72.13
2023-02-11T22:36:24.723Z,67.25
2023-02-11T22:38:53.836Z,73.40
2023-02-11T22:41:21.959Z,73.90
2023-02-11T22:43:49.775Z,64.45
2023-02-11T22:46:19.454Z,67.60
2023-02-11T22:48:48.108Z,66.68
2023-02-11T22:51:27.967Z,64.68
2023-02-11T22:54:04.826Z,62.75
2023-02-11T22:56:33.835Z,69.20
2023-02-11T22:59:03.780Z,59.03
2023-02-11T23:01:31.731Z,70.72
2023-02-11T23:04:01.807Z,61.45
2023-02-11T23:06:29.144Z,72.75
2023-02-11T23:08:56.656Z,71.30
2023-02-11T23:11:27.827Z,68.22
